Time;durP1;ratioP1;P1;durP2;ratioP2;P2;SDS_P1;SDS_P2;PMS_P1;PMS_P2;Temp;Humidity;BMP_temperature;BMP_pressure;BME280_temperature;BME280_humidity;BME280_pressure;Samples;Min_cycle;Max_cycle;Signal;HPM_P1;HPM_P2
2022/03/15 00:01:31;;;;;;;;;22.00;22.00;;;;;11.91;78.03;100190.13;5052837;28;45411;-76
2022/03/15 00:03:56;;;;;;;;;26.00;24.33;;;;;11.90;78.14;100188.41;5050141;28;45518;-76
2022/03/15 00:06:22;;;;;;;;;25.00;24.67;;;;;11.90;78.38;100185.75;5054946;28;45380;-76
2022/03/15 00:08:48;;;;;;;;;23.67;22.33;;;;;11.89;78.35;100186.69;5048977;28;45459;-76
2022/03/15 00:11:14;;;;;;;;;28.67;21.33;;;;;11.86;77.60;100184.13;5070306;28;45471;-76
2022/03/15 00:13:39;;;;;;;;;23.00;19.33;;;;;11.85;78.06;100182.41;5049856;28;45417;-76
2022/03/15 00:16:10;;;;;;;;;28.33;25.00;;;;;11.83;78.15;100190.38;5052359;28;45558;-76
2022/03/15 00:18:35;;;;;;;;;26.67;21.67;;;;;11.83;77.83;100200.06;5050247;28;48170;-76
2022/03/15 00:21:04;;;;;;;;;22.00;21.00;;;;;11.81;77.66;100196.59;5054733;28;45472;-76
2022/03/15 00:23:31;;;;;;;;;28.00;25.67;;;;;11.81;77.81;100204.53;5049547;28;45490;-76
2022/03/15 00:25:57;;;;;;;;;23.33;21.33;;;;;11.81;77.87;100208.03;5054585;28;45311;-77
2022/03/15 00:28:23;;;;;;;;;23.67;21.33;;;;;11.81;77.80;100204.53;5046651;28;46563;-79
2022/03/15 00:30:49;;;;;;;;;23.33;20.00;;;;;11.82;77.98;100214.19;5055072;28;45410;-78
2022/03/15 00:33:16;;;;;;;;;27.67;24.33;;;;;11.83;78.02;100223.84;5067930;28;45519;-79
2022/03/15 00:35:43;;;;;;;;;22.33;21.33;;;;;11.84;78.09;100226.47;5054521;28;45565;-78
2022/03/15 00:38:09;;;;;;;;;23.00;21.67;;;;;11.85;77.72;100237.91;5054579;28;45590;-76
2022/03/15 00:40:35;;;;;;;;;20.33;20.33;;;;;11.86;77.47;100237.84;5055055;28;45467;-76
2022/03/15 00:43:01;;;;;;;;;20.67;20.00;;;;;11.84;77.57;100222.94;5054395;28;45419;-76
2022/03/15 00:45:28;;;;;;;;;24.00;22.33;;;;;11.78;77.38;100228.38;5054470;28;45470;-76
2022/03/15 00:47:54;;;;;;;;;17.33;16.00;;;;;11.72;77.26;100239.97;5042460;28;45537;-76
2022/03/15 00:50:25;;;;;;;;;23.67;21.67;;;;;11.75;77.38;100239.88;5053364;28;45407;-76
2022/03/15 00:52:51;;;;;;;;;17.67;17.00;;;;;11.77;77.25;100227.53;5050484;28;45405;-76
2022/03/15 00:55:17;;;;;;;;;17.00;15.33;;;;;11.79;77.20;100230.13;5053212;28;45646;-76
2022/03/15 00:57:42;;;;;;;;;17.33;17.33;;;;;11.81;77.15;100223.03;5053801;28;45467;-76
2022/03/15 01:00:09;;;;;;;;;17.50;17.00;;;;;11.83;77.09;100237.06;5054279;28;45344;-76
2022/03/15 01:02:35;;;;;;;;;18.67;18.67;;;;;11.83;77.23;100237.06;5050752;28;45374;-77
2022/03/15 01:05:00;;;;;;;;;20.67;20.67;;;;;11.82;77.09;100245.91;5054237;28;45363;-76
2022/03/15 01:07:26;;;;;;;;;24.67;23.00;;;;;11.76;77.54;100240.78;5050981;28;45554;-76
2022/03/15 01:09:52;;;;;;;;;26.00;25.33;;;;;11.73;77.38;100243.47;5054466;28;45487;-76
2022/03/15 01:12:17;;;;;;;;;31.33;26.00;;;;;11.69;77.95;100239.19;5051259;28;45413;-76
2022/03/15 01:14:43;;;;;;;;;21.67;19.67;;;;;11.64;78.20;100255.16;5054358;28;45461;-76
2022/03/15 01:17:09;;;;;;;;;21.33;20.00;;;;;11.63;78.64;100257.81;5053340;28;46102;-76
2022/03/15 01:19:34;;;;;;;;;23.67;22.00;;;;;11.58;78.97;100250.00;5052917;28;45798;-76
2022/03/15 01:22:00;;;;;;;;;18.00;18.00;;;;;11.54;79.37;100241.31;5049402;28;45381;-76
2022/03/15 01:24:25;;;;;;;;;19.33;17.33;;;;;11.49;79.34;100243.22;5055919;28;45560;-76
2022/03/15 01:26:52;;;;;;;;;24.33;21.00;;;;;11.45;79.63;100243.31;5054917;28;45317;-76
2022/03/15 01:29:20;;;;;;;;;23.33;23.33;;;;;11.43;79.20;100239.84;5072795;28;45772;-76
2022/03/15 01:31:45;;;;;;;;;23.00;21.33;;;;;11.41;78.99;100250.44;5055345;28;45418;-76
2022/03/15 01:34:11;;;;;;;;;21.33;21.33;;;;;11.42;78.99;100256.59;5046535;28;45568;-76
2022/03/15 01:36:36;;;;;;;;;19.33;18.33;;;;;11.42;79.23;100261.88;5049637;28;45731;-76
2022/03/15 01:39:04;;;;;;;;;21.33;20.00;;;;;11.41;79.49;100266.28;5055718;28;45496;-76
2022/03/15 01:41:38;;;;;;;;;26.00;20.67;;;;;11.41;78.96;100265.41;5055848;28;45399;-76
2022/03/15 01:44:12;;;;;;;;;25.33;23.00;;;;;11.43;79.26;100261.84;5068025;28;46012;-76
2022/03/15 01:46:37;;;;;;;;;23.67;20.67;;;;;11.43;79.21;100258.31;5056417;28;46271;-76
2022/03/15 01:49:03;;;;;;;;;24.00;20.67;;;;;11.43;79.00;100259.19;5057130;28;45333;-76
2022/03/15 01:51:28;;;;;;;;;25.00;21.33;;;;;11.38;80.21;100269.03;5055854;28;45368;-76
2022/03/15 01:53:54;;;;;;;;;27.33;23.00;;;;;11.32;79.83;100270.94;5056306;28;45321;-76
2022/03/15 01:56:19;;;;;;;;;27.67;25.67;;;;;11.26;80.93;100271.94;5056861;28;47165;-76
2022/03/15 01:58:45;;;;;;;;;23.67;23.33;;;;;11.24;80.79;100263.19;5057502;28;45368;-76
2022/03/15 02:01:11;;;;;;;;;18.33;18.33;;;;;11.24;79.65;100267.59;5056947;28;45444;-76
2022/03/15 02:03:37;;;;;;;;;21.00;20.67;;;;;11.24;79.12;100273.75;5052207;28;45489;-76
2022/03/15 02:06:05;;;;;;;;;24.00;20.67;;;;;11.22;80.56;100275.59;5056697;28;45788;-76
2022/03/15 02:08:31;;;;;;;;;26.33;24.67;;;;;11.21;80.92;100287.06;5054227;28;45516;-76
2022/03/15 02:10:57;;;;;;;;;20.00;19.00;;;;;11.21;80.96;100291.47;5056868;28;45406;-76
2022/03/15 02:13:23;;;;;;;;;20.67;19.00;;;;;11.22;81.14;100294.06;5055243;28;45545;-76
2022/03/15 02:15:49;;;;;;;;;22.67;21.67;;;;;11.23;81.02;100298.41;5054769;28;47901;-76
2022/03/15 02:18:14;;;;;;;;;26.67;23.67;;;;;11.23;80.96;100290.50;5053511;28;45481;-76
2022/03/15 02:20:40;;;;;;;;;27.33;22.67;;;;;11.23;81.11;100285.22;5056694;28;45313;-76
2022/03/15 02:23:05;;;;;;;;;23.00;21.33;;;;;11.24;81.01;100275.53;5056267;28;45573;-76
2022/03/15 02:25:31;;;;;;;;;27.00;23.67;;;;;11.23;81.34;100287.03;5071981;28;46136;-76
2022/03/15 02:27:56;;;;;;;;;27.00;23.33;;;;;11.21;81.19;100289.69;5065860;27;45344;-76
2022/03/15 02:30:22;;;;;;;;;25.67;23.33;;;;;11.22;81.36;100293.19;5072401;28;45487;-76
2022/03/15 02:32:48;;;;;;;;;23.33;19.67;;;;;11.23;81.12;100298.41;5051131;28;45357;-76
2022/03/15 02:35:16;;;;;;;;;23.00;20.33;;;;;11.27;80.76;100301.84;5056161;28;46528;-76
2022/03/15 02:37:45;;;;;;;;;18.33;17.33;;;;;11.29;80.83;100294.78;5056047;28;45466;-76
2022/03/15 02:40:11;;;;;;;;;24.33;20.67;;;;;11.30;81.07;100297.38;5056300;28;45459;-76
2022/03/15 02:42:36;;;;;;;;;23.67;22.33;;;;;11.34;81.11;100292.91;5055891;28;45581;-76
2022/03/15 02:45:03;;;;;;;;;24.33;22.33;;;;;11.37;80.67;100296.34;5056264;28;45384;-76
2022/03/15 02:47:28;;;;;;;;;30.00;25.00;;;;;11.37;80.09;100298.97;5047340;28;45400;-76
2022/03/15 02:49:54;;;;;;;;;23.33;23.00;;;;;11.38;80.74;100299.84;5053776;28;45375;-76
2022/03/15 02:52:20;;;;;;;;;27.33;25.67;;;;;11.39;80.57;100301.59;5056108;28;45439;-76
2022/03/15 02:54:45;;;;;;;;;23.00;21.67;;;;;11.42;80.66;100298.84;5053847;28;45534;-76
2022/03/15 02:57:11;;;;;;;;;25.67;22.67;;;;;11.46;80.60;100308.44;5055837;28;45435;-76
2022/03/15 02:59:39;;;;;;;;;24.33;21.67;;;;;11.50;80.46;100304.81;5056038;28;45364;-77
2022/03/15 03:02:06;;;;;;;;;27.00;24.00;;;;;11.53;80.01;100304.75;5049386;28;45351;-76
2022/03/15 03:04:31;;;;;;;;;24.67;22.00;;;;;11.54;80.22;100302.06;5053477;28;45500;-76
2022/03/15 03:07:02;;;;;;;;;30.00;24.00;;;;;11.57;80.20;100295.81;5053861;28;45625;-76
2022/03/15 03:09:28;;;;;;;;;21.00;19.67;;;;;11.59;79.80;100301.94;5053998;28;45452;-76
2022/03/15 03:11:54;;;;;;;;;22.00;21.00;;;;;11.62;79.98;100304.50;5066929;27;45377;-76
2022/03/15 03:14:21;;;;;;;;;25.67;22.33;;;;;11.64;79.94;100304.47;5051591;28;45384;-76
2022/03/15 03:16:46;;;;;;;;;26.67;26.00;;;;;11.69;79.88;100302.56;5052845;28;45317;-76
2022/03/15 03:19:12;;;;;;;;;22.67;21.67;;;;;11.71;80.08;100296.34;5054587;28;45393;-76
2022/03/15 03:21:38;;;;;;;;;15.00;13.00;;;;;11.73;79.64;100294.50;5050130;28;45463;-76
2022/03/15 03:24:06;;;;;;;;;24.33;23.00;;;;;11.77;80.06;100304.13;5055519;28;45404;-76
2022/03/15 03:26:34;;;;;;;;;23.33;21.33;;;;;11.79;79.74;100299.69;5069085;28;45596;-76
2022/03/15 03:29:00;;;;;;;;;22.33;22.33;;;;;11.80;79.53;100298.78;5047070;28;45484;-76
2022/03/15 03:31:26;;;;;;;;;19.00;19.00;;;;;11.77;79.54;100313.84;5054761;28;45524;-76
2022/03/15 03:33:51;;;;;;;;;18.67;16.67;;;;;11.76;79.52;100317.38;5055490;28;45395;-76
2022/03/15 03:36:17;;;;;;;;;27.33;24.67;;;;;11.77;79.35;100308.56;5055452;28;45365;-76
2022/03/15 03:38:42;;;;;;;;;20.33;19.33;;;;;11.78;79.44;100305.00;5055215;28;45336;-77
2022/03/15 03:41:08;;;;;;;;;23.00;20.00;;;;;11.79;79.16;100301.44;5055309;28;45483;-76
2022/03/15 03:43:34;;;;;;;;;20.00;18.67;;;;;11.80;78.85;100313.75;5053003;28;45716;-77
2022/03/15 03:46:00;;;;;;;;;26.67;20.00;;;;;11.81;78.57;100321.66;5054913;28;45483;-77
2022/03/15 03:48:26;;;;;;;;;20.67;19.00;;;;;11.82;78.17;100311.94;5049736;28;45415;-77
2022/03/15 03:50:52;;;;;;;;;21.67;21.00;;;;;11.81;78.10;100313.72;5054864;28;45605;-77
2022/03/15 03:53:18;;;;;;;;;35.00;26.67;;;;;11.84;78.15;100318.06;5051869;28;45391;-77
2022/03/15 03:55:44;;;;;;;;;20.67;19.67;;;;;11.83;78.31;100308.41;5055093;28;45435;-77
2022/03/15 03:58:11;;;;;;;;;25.00;20.67;;;;;11.86;78.40;100314.47;5054716;28;45559;-77
2022/03/15 04:00:37;;;;;;;;;26.00;20.33;;;;;11.87;78.22;100310.94;5054847;28;45421;-77
2022/03/15 04:03:03;;;;;;;;;20.67;20.67;;;;;11.88;78.08;100301.22;5044821;28;46082;-77
2022/03/15 04:05:33;;;;;;;;;23.00;20.67;;;;;11.88;78.11;100304.75;5050877;28;45610;-77
2022/03/15 04:07:59;;;;;;;;;19.00;17.00;;;;;11.90;78.29;100304.66;5051736;28;45447;-77
2022/03/15 04:10:28;;;;;;;;;25.00;23.67;;;;;11.89;78.12;100310.91;5053588;28;45368;-77
2022/03/15 04:12:54;;;;;;;;;23.00;21.67;;;;;11.89;77.73;100316.19;5049415;28;46466;-77
2022/03/15 04:15:20;;;;;;;;;21.00;17.67;;;;;11.87;78.11;100316.22;5054913;28;45354;-77
2022/03/15 04:17:46;;;;;;;;;20.67;19.00;;;;;11.87;77.85;100304.78;5053988;28;45450;-77
2022/03/15 04:20:11;;;;;;;;;27.00;23.67;;;;;11.86;78.14;100303.03;5054855;28;45539;-77
2022/03/15 04:22:37;;;;;;;;;26.00;23.00;;;;;11.86;77.61;100305.69;5054257;28;46251;-77
2022/03/15 04:25:03;;;;;;;;;24.33;22.33;;;;;11.84;77.68;100304.84;5054636;28;45388;-77
2022/03/15 04:27:28;;;;;;;;;30.67;27.67;;;;;11.82;77.72;100299.59;5047986;28;45477;-77
2022/03/15 04:29:54;;;;;;;;;32.67;28.67;;;;;11.82;77.64;100306.66;5069970;28;45568;-77
2022/03/15 04:32:20;;;;;;;;;22.00;20.00;;;;;11.79;77.89;100301.44;5049205;28;48195;-77
2022/03/15 04:34:46;;;;;;;;;30.33;27.33;;;;;11.77;77.85;100300.63;5054556;28;45302;-77
2022/03/15 04:37:12;;;;;;;;;25.67;22.67;;;;;11.75;77.95;100297.13;5049865;28;45515;-77
2022/03/15 04:39:37;;;;;;;;;22.33;20.00;;;;;11.73;77.94;100296.31;5048455;28;45491;-77
2022/03/15 04:42:05;;;;;;;;;21.67;20.33;;;;;11.73;77.75;100298.97;5054251;28;45844;-76
2022/03/15 04:44:30;;;;;;;;;25.33;23.67;;;;;11.70;77.82;100299.91;5054619;28;45388;-77
2022/03/15 04:46:56;;;;;;;;;24.33;22.67;;;;;11.69;77.82;100292.00;5054359;28;45463;-77
2022/03/15 04:49:21;;;;;;;;;24.67;24.67;;;;;11.65;77.82;100288.56;5054542;28;45392;-77
2022/03/15 04:51:48;;;;;;;;;25.00;22.67;;;;;11.65;77.83;100285.06;5051733;28;45606;-77
2022/03/15 04:54:13;;;;;;;;;26.00;24.33;;;;;11.62;77.98;100282.50;5048255;28;45322;-77
2022/03/15 04:56:39;;;;;;;;;23.00;22.00;;;;;11.61;77.98;100286.03;5054274;28;45388;-77
2022/03/15 04:59:05;;;;;;;;;26.33;24.00;;;;;11.60;77.94;100273.75;5055632;28;45516;-77
2022/03/15 05:01:31;;;;;;;;;23.33;22.33;;;;;11.58;77.83;100259.72;5056889;28;46466;-77
2022/03/15 05:03:56;;;;;;;;;26.67;23.67;;;;;11.57;77.79;100272.03;5054611;28;45378;-77
2022/03/15 05:06:21;;;;;;;;;21.67;20.33;;;;;11.57;77.52;100279.09;5058019;28;45374;-77
2022/03/15 05:08:48;;;;;;;;;22.67;21.33;;;;;11.56;77.64;100278.25;5051744;28;45466;-77
2022/03/15 05:11:14;;;;;;;;;27.00;26.00;;;;;11.54;77.69;100267.72;5057631;28;45578;-77
2022/03/15 05:13:45;;;;;;;;;28.67;24.67;;;;;11.54;77.65;100261.59;5047700;28;45492;-77
2022/03/15 05:16:14;;;;;;;;;30.67;27.00;;;;;11.53;77.71;100268.63;5057605;28;45470;-77
2022/03/15 05:18:40;;;;;;;;;24.00;23.67;;;;;11.50;77.53;100257.28;5053473;28;45575;-77
2022/03/15 05:21:09;;;;;;;;;28.67;24.67;;;;;11.50;77.73;100270.47;5057627;28;46138;-77
2022/03/15 05:23:35;;;;;;;;;22.67;21.67;;;;;11.48;77.83;100262.59;5057374;28;45426;-77
2022/03/15 05:26:01;;;;;;;;;24.33;24.00;;;;;11.48;77.87;100254.69;5057440;28;45417;-77
2022/03/15 05:28:27;;;;;;;;;33.67;29.67;;;;;11.47;78.07;100258.22;5054497;28;45555;-77
2022/03/15 05:30:53;;;;;;;;;30.67;25.67;;;;;11.47;78.02;100252.94;5038359;28;45365;-77
2022/03/15 05:33:19;;;;;;;;;27.00;25.67;;;;;11.47;77.82;100252.06;5049483;28;45384;-77
2022/03/15 05:35:45;;;;;;;;;34.67;27.33;;;;;11.47;78.12;100258.22;5055925;28;45452;-77
2022/03/15 05:38:10;;;;;;;;;25.00;24.00;;;;;11.48;78.37;100253.81;5048692;28;45434;-77
2022/03/15 05:40:36;;;;;;;;;27.00;24.33;;;;;11.48;77.71;100252.03;5056595;28;45494;-77
2022/03/15 05:43:02;;;;;;;;;24.00;24.00;;;;;11.47;78.06;100258.22;5046319;28;45427;-77
2022/03/15 05:45:28;;;;;;;;;24.67;24.33;;;;;11.46;78.41;100259.13;5039253;28;45508;-77
2022/03/15 05:47:55;;;;;;;;;24.67;22.67;;;;;11.47;78.10;100254.72;5055732;28;45596;-77
2022/03/15 05:50:22;;;;;;;;;26.00;25.67;;;;;11.47;78.12;100254.72;5055393;28;46048;-77
2022/03/15 05:52:48;;;;;;;;;24.67;24.00;;;;;11.47;78.24;100252.94;5045377;28;45741;-77
2022/03/15 05:55:13;;;;;;;;;29.00;24.00;;;;;11.46;78.20;100243.28;5038054;28;45374;-77
2022/03/15 05:57:39;;;;;;;;;23.00;22.00;;;;;11.45;78.42;100246.81;5055133;28;45510;-77
2022/03/15 06:00:12;;;;;;;;;27.67;27.00;;;;;11.45;78.37;100254.75;5071910;28;45447;-77
2022/03/15 06:02:39;;;;;;;;;26.67;24.67;;;;;11.45;78.58;100251.25;5049952;28;45556;-77
2022/03/15 06:05:07;;;;;;;;;24.33;22.00;;;;;11.46;78.31;100237.13;5056614;28;45407;-77
2022/03/15 06:07:32;;;;;;;;;30.67;27.00;;;;;11.45;78.04;100238.91;5053586;28;45733;-77
2022/03/15 06:09:58;;;;;;;;;26.00;24.67;;;;;11.44;78.20;100244.22;5055429;28;45578;-77
2022/03/15 06:12:24;;;;;;;;;38.33;31.00;;;;;11.43;78.42;100240.72;5049452;28;45451;-77
2022/03/15 06:14:51;;;;;;;;;24.00;24.00;;;;;11.42;78.43;100238.97;5055556;28;45404;-77
2022/03/15 06:17:17;;;;;;;;;28.00;24.67;;;;;11.41;78.37;100233.72;5052772;28;45523;-77
2022/03/15 06:19:43;;;;;;;;;26.00;23.67;;;;;11.43;78.37;100232.78;5050500;28;48049;-77
2022/03/15 06:22:09;;;;;;;;;25.33;25.33;;;;;11.43;78.38;100232.78;5044004;28;45501;-76
2022/03/15 06:24:37;;;;;;;;;25.33;22.00;;;;;11.45;78.16;100223.06;5051588;28;45483;-77
2022/03/15 06:27:05;;;;;;;;;26.33;22.00;;;;;11.46;78.38;100226.56;5054471;28;45449;-77
2022/03/15 06:29:30;;;;;;;;;28.33;27.67;;;;;11.47;78.49;100225.66;5053726;28;46034;-77
2022/03/15 06:31:56;;;;;;;;;24.33;23.33;;;;;11.49;78.31;100221.22;5054270;28;45458;-77
2022/03/15 06:34:23;;;;;;;;;24.67;22.67;;;;;11.54;78.20;100220.19;5054190;28;45376;-64
2022/03/15 06:36:49;;;;;;;;;25.33;23.33;;;;;11.61;78.12;100214.72;5066017;28;45773;-64
2022/03/15 06:39:14;;;;;;;;;27.00;26.00;;;;;11.66;77.80;100215.47;5054100;28;46218;-64
2022/03/15 06:41:41;;;;;;;;;24.33;23.33;;;;;11.70;77.70;100227.72;5051984;28;45535;-64
2022/03/15 06:44:08;;;;;;;;;28.00;24.67;;;;;11.74;77.55;100226.69;5050367;28;45508;-64
2022/03/15 06:46:33;;;;;;;;;30.33;28.00;;;;;11.77;76.84;100222.22;5051976;28;45369;-64
2022/03/15 06:49:00;;;;;;;;;30.33;27.33;;;;;11.78;77.09;100212.53;5063826;28;46375;-64
2022/03/15 06:51:27;;;;;;;;;24.00;22.33;;;;;11.78;77.07;100221.31;5054022;28;45504;-64
2022/03/15 06:53:54;;;;;;;;;23.67;23.67;;;;;11.80;76.84;100226.56;5049674;28;45389;-64
2022/03/15 06:56:20;;;;;;;;;30.00;26.00;;;;;11.82;77.13;100233.56;5053327;28;45529;-64
2022/03/15 06:58:46;;;;;;;;;29.00;24.00;;;;;11.85;76.78;100229.97;5047864;28;46139;-64
2022/03/15 07:01:12;;;;;;;;;24.33;23.33;;;;;11.87;76.62;100230.78;5068976;28;45486;-64
2022/03/15 07:03:37;;;;;;;;;28.00;26.33;;;;;11.87;76.69;100230.78;5064099;28;45585;-64
2022/03/15 07:06:03;;;;;;;;;34.00;27.67;;;;;11.86;76.68;100235.22;5054423;28;45540;-64
2022/03/15 07:08:29;;;;;;;;;27.00;25.67;;;;;11.86;77.01;100239.63;5049901;28;45571;-64
2022/03/15 07:10:55;;;;;;;;;27.00;25.33;;;;;11.86;77.22;100232.56;5051904;28;45354;-66
2022/03/15 07:13:20;;;;;;;;;31.00;27.33;;;;;11.88;76.74;100232.53;5069771;28;45594;-70
2022/03/15 07:15:46;;;;;;;;;29.33;24.67;;;;;11.90;76.92;100235.13;5053598;28;45289;-69
2022/03/15 07:18:15;;;;;;;;;29.67;27.00;;;;;11.94;76.68;100221.75;5050546;28;46687;-69
2022/03/15 07:20:41;;;;;;;;;25.33;24.00;;;;;11.95;76.76;100210.28;5053011;28;45514;-70
2022/03/15 07:23:07;;;;;;;;;27.00;25.00;;;;;11.97;76.61;100212.91;5052079;28;45448;-69
2022/03/15 07:25:33;;;;;;;;;25.33;24.67;;;;;11.98;76.36;100211.97;5053111;28;45538;-70
2022/03/15 07:27:58;;;;;;;;;26.00;25.67;;;;;11.98;76.76;100219.91;5049060;28;46361;-69
2022/03/15 07:30:24;;;;;;;;;19.67;18.33;;;;;11.99;76.23;100225.16;5051853;28;45388;-69
2022/03/15 07:32:49;;;;;;;;;27.00;24.67;;;;;11.98;75.97;100226.06;5052546;28;45439;-69
2022/03/15 07:35:15;;;;;;;;;28.00;28.00;;;;;11.98;75.87;100222.56;5069172;28;45362;-70
2022/03/15 07:37:52;;;;;;;;;28.67;28.00;;;;;12.00;75.89;100218.09;5053661;28;45708;-69
2022/03/15 07:40:19;;;;;;;;;47.67;40.00;;;;;12.01;75.68;100212.78;5052890;28;45433;-69
2022/03/15 07:42:46;;;;;;;;;29.33;27.00;;;;;12.03;75.81;100220.66;5043014;28;45490;-69
2022/03/15 07:45:11;;;;;;;;;27.33;26.00;;;;;12.07;76.18;100230.22;5067974;28;45432;-69
2022/03/15 07:47:37;;;;;;;;;34.67;31.00;;;;;12.11;75.75;100229.22;5052347;28;46442;-69
2022/03/15 07:50:03;;;;;;;;;28.00;26.33;;;;;12.11;75.65;100226.56;5052606;28;45381;-69
2022/03/15 07:52:28;;;;;;;;;30.67;26.00;;;;;12.14;75.38;100219.44;5053363;28;45357;-69
2022/03/15 07:54:54;;;;;;;;;26.67;24.00;;;;;12.16;75.63;100219.38;5053863;28;45294;-68
2022/03/15 07:57:19;;;;;;;;;27.33;25.00;;;;;12.18;75.47;100215.78;5052293;28;45605;-68
2022/03/15 07:59:46;;;;;;;;;25.67;25.67;;;;;12.22;75.45;100216.56;5051976;28;45351;-68
2022/03/15 08:02:12;;;;;;;;;22.00;20.00;;;;;12.29;75.28;100228.69;5046976;28;45526;-70
2022/03/15 08:04:38;;;;;;;;;30.00;27.00;;;;;12.33;75.01;100227.69;5046101;28;45336;-68
2022/03/15 08:07:03;;;;;;;;;39.33;32.00;;;;;12.38;75.03;100214.34;5048453;28;46582;-67
2022/03/15 08:09:29;;;;;;;;;30.33;28.67;;;;;12.39;74.77;100203.72;5043605;28;45444;-67
2022/03/15 08:11:54;;;;;;;;;28.00;28.00;;;;;12.42;74.80;100210.66;5041578;28;45484;-69
2022/03/15 08:14:20;;;;;;;;;26.67;25.00;;;;;12.46;74.75;100207.03;5053296;28;45438;-69
2022/03/15 08:16:45;;;;;;;;;27.00;22.67;;;;;12.51;74.24;100221.00;5049505;28;47043;-69
2022/03/15 08:19:12;;;;;;;;;30.33;27.67;;;;;12.55;74.33;100214.69;5050369;28;45400;-69
2022/03/15 08:21:37;;;;;;;;;29.33;28.33;;;;;12.57;74.25;100203.13;5053471;28;45309;-69
2022/03/15 08:24:03;;;;;;;;;26.33;24.67;;;;;12.62;74.34;100200.34;5045259;28;45515;-70
2022/03/15 08:26:28;;;;;;;;;32.00;26.67;;;;;12.65;74.03;100209.97;5052557;28;47660;-69
2022/03/15 08:28:54;;;;;;;;;32.33;29.67;;;;;12.67;73.96;100201.09;5045286;28;45352;-70
2022/03/15 08:31:20;;;;;;;;;25.33;25.33;;;;;12.73;73.91;100200.91;5052081;28;45465;-69
2022/03/15 08:33:45;;;;;;;;;27.00;24.67;;;;;12.77;74.04;100191.94;5048442;28;45424;-69
2022/03/15 08:36:13;;;;;;;;;25.33;22.33;;;;;12.82;73.87;100199.72;5055860;28;46620;-69
2022/03/15 08:38:39;;;;;;;;;29.67;27.67;;;;;12.86;73.73;100196.09;5049116;28;45448;-69
2022/03/15 08:41:06;;;;;;;;;29.00;25.67;;;;;12.89;73.60;100196.84;5055293;28;45377;-69
2022/03/15 08:43:32;;;;;;;;;29.67;27.67;;;;;12.93;73.63;100202.88;5047535;28;45399;-69
2022/03/15 08:45:58;;;;;;;;;29.33;24.67;;;;;12.98;73.27;100211.56;5046749;28;45604;-69
2022/03/15 08:48:25;;;;;;;;;29.00;28.00;;;;;12.99;73.13;100210.66;5056135;28;45468;-69
2022/03/15 08:50:51;;;;;;;;;29.33;25.67;;;;;13.00;73.08;100203.56;5056569;28;45428;-69
2022/03/15 08:53:17;;;;;;;;;27.67;26.00;;;;;13.03;73.10;100200.81;5051761;28;45618;-70
2022/03/15 08:55:43;;;;;;;;;27.33;27.33;;;;;13.06;73.13;100208.66;5056381;28;46119;-69
2022/03/15 08:58:08;;;;;;;;;29.00;27.33;;;;;13.10;72.99;100204.97;5048656;28;45503;-69
2022/03/15 09:00:34;;;;;;;;;25.33;20.67;;;;;13.15;72.75;100197.81;5055506;28;45538;-69
2022/03/15 09:02:59;;;;;;;;;24.33;22.33;;;;;13.17;72.40;100194.19;5057211;28;45499;-69
2022/03/15 09:05:26;;;;;;;;;25.67;25.00;;;;;13.20;72.37;100186.16;5055600;28;47219;-69
2022/03/15 09:07:53;;;;;;;;;30.67;28.33;;;;;13.23;72.19;100194.00;5056808;28;45498;-69
2022/03/15 09:10:24;;;;;;;;;30.00;27.00;;;;;13.24;72.20;100197.47;5057422;28;45436;-69
2022/03/15 09:12:52;;;;;;;;;30.33;28.00;;;;;13.27;72.32;100205.31;5056467;28;45465;-69
2022/03/15 09:15:19;;;;;;;;;27.00;24.00;;;;;13.28;71.95;100191.16;5054882;27;45457;-69
2022/03/15 09:17:44;;;;;;;;;26.67;26.33;;;;;13.31;71.94;100184.91;5051114;28;45432;-69
2022/03/15 09:20:12;;;;;;;;;29.33;27.67;;;;;13.32;71.87;100174.25;5069060;28;45581;-69
2022/03/15 09:22:37;;;;;;;;;27.67;25.67;;;;;13.34;71.80;100187.44;5043769;28;45298;-69
2022/03/15 09:25:04;;;;;;;;;35.00;30.00;;;;;13.37;71.63;100177.63;5056494;28;45453;-69
2022/03/15 09:27:30;;;;;;;;;23.33;22.67;;;;;13.38;71.59;100166.13;5056276;28;45423;-69
2022/03/15 09:29:56;;;;;;;;;23.00;22.00;;;;;13.39;71.36;100169.63;5054583;28;45420;-69
2022/03/15 09:32:22;;;;;;;;;25.00;23.00;;;;;13.38;71.65;100160.81;5051412;28;45467;-69
2022/03/15 09:34:47;;;;;;;;;11.33;11.33;;;;;13.40;71.64;100166.06;5064763;28;45673;-69
2022/03/15 09:37:14;;;;;;;;;25.67;23.67;;;;;13.48;71.50;100153.41;5052444;28;45565;-70
2022/03/15 09:39:41;;;;;;;;;26.67;24.33;;;;;13.54;71.22;100145.25;5072001;27;45389;-68
2022/03/15 09:42:09;;;;;;;;;32.33;26.33;;;;;13.60;71.52;100137.06;5056260;28;45548;-68
2022/03/15 09:44:38;;;;;;;;;30.00;29.00;;;;;13.66;71.21;100136.84;5054855;28;45988;-68
2022/03/15 09:47:08;;;;;;;;;28.67;26.67;;;;;13.69;71.06;100135.88;5055635;28;45307;-68
2022/03/15 09:49:35;;;;;;;;;33.33;30.33;;;;;13.74;71.12;100131.28;5054151;28;45713;-68
2022/03/15 09:52:04;;;;;;;;;24.00;20.67;;;;;13.76;70.67;100130.28;5052353;28;45360;-68
2022/03/15 09:54:30;;;;;;;;;25.00;25.00;;;;;13.82;70.47;100132.72;5055942;28;46610;-68
2022/03/15 09:56:57;;;;;;;;;32.67;28.67;;;;;13.91;70.75;100142.94;5052229;28;45312;-69
2022/03/15 09:59:23;;;;;;;;;30.33;24.33;;;;;14.03;70.03;100139.00;5032449;28;45520;-68
2022/03/15 10:01:52;;;;;;;;;23.00;21.00;;;;;14.12;69.96;100143.94;5053002;28;45500;-69
2022/03/15 10:04:19;;;;;;;;;22.00;20.67;;;;;14.19;69.13;100144.56;5070398;28;46220;-68
2022/03/15 10:06:45;;;;;;;;;29.33;28.00;;;;;14.07;67.94;100140.63;5070071;28;45478;-68
2022/03/15 10:09:11;;;;;;;;;21.67;20.67;;;;;13.88;68.50;100126.31;5053831;28;45356;-68
2022/03/15 10:11:37;;;;;;;;;21.00;21.00;;;;;13.79;69.16;100116.03;5055080;28;45298;-68
2022/03/15 10:14:04;;;;;;;;;27.67;22.67;;;;;13.77;69.12;100105.50;5054223;28;45634;-68
2022/03/15 10:16:35;;;;;;;;;20.33;20.33;;;;;13.79;69.01;100108.09;5054124;28;45404;-68
2022/03/15 10:19:03;;;;;;;;;28.33;23.33;;;;;13.85;69.12;100121.13;5052727;28;45393;-68
2022/03/15 10:21:40;;;;;;;;;18.33;18.33;;;;;13.87;68.53;100119.28;5053514;28;45592;-68
2022/03/15 10:24:07;;;;;;;;;28.00;23.67;;;;;13.80;68.73;100126.59;5053051;28;48079;-68
2022/03/15 10:26:38;;;;;;;;;26.00;23.67;;;;;13.71;68.35;100116.34;5053569;28;45457;-68
2022/03/15 10:29:05;;;;;;;;;19.33;19.33;;;;;13.62;68.90;100122.84;5058077;28;45396;-68
2022/03/15 10:31:30;;;;;;;;;28.00;25.00;;;;;13.57;68.87;100121.28;5054093;28;45598;-69
2022/03/15 10:34:01;;;;;;;;;23.00;23.00;;;;;13.52;68.70;100107.34;5046452;28;46059;-68
2022/03/15 10:36:36;;;;;;;;;18.33;17.67;;;;;13.45;69.42;100116.41;5055255;28;45414;-68
2022/03/15 10:39:02;;;;;;;;;23.33;21.67;;;;;13.44;69.02;100104.94;5047982;28;45421;-68
2022/03/15 10:41:29;;;;;;;;;23.67;21.67;;;;;13.42;69.74;100092.69;5055391;28;45563;-68
2022/03/15 10:43:57;;;;;;;;;28.33;25.67;;;;;13.47;69.54;100082.78;5050519;28;45746;-69
2022/03/15 10:46:24;;;;;;;;;24.67;23.67;;;;;13.51;69.30;100090.59;5053562;28;45466;-68
2022/03/15 10:49:02;;;;;;;;;22.00;22.00;;;;;13.56;68.50;100079.81;5050068;28;45362;-68
2022/03/15 10:51:28;;;;;;;;;22.00;22.00;;;;;13.59;68.85;100088.50;5053139;28;45411;-68
2022/03/15 10:54:00;;;;;;;;;10.67;10.67;;;;;13.64;68.28;100067.13;5049692;28;46480;-68
2022/03/15 10:56:26;;;;;;;;;22.67;18.00;;;;;13.70;68.82;100071.34;5053745;28;45365;-68
2022/03/15 10:58:51;;;;;;;;;23.33;22.00;;;;;13.78;68.23;100054.22;5050111;28;45600;-68
2022/03/15 11:01:22;;;;;;;;;26.33;21.67;;;;;13.83;68.34;100057.56;5068184;28;45373;-68
2022/03/15 11:04:03;;;;;;;;;22.67;21.67;;;;;13.95;68.65;100050.91;5048991;28;45492;-68
2022/03/15 11:06:32;;;;;;;;;20.00;16.00;;;;;14.05;67.54;100054.97;5042566;28;45646;-68